Time;durP1;ratioP1;P1;durP2;ratioP2;P2;SDS_P1;SDS_P2;PMS_P1;PMS_P2;Temp;Humidity;BMP_temperature;BMP_pressure;BME280_temperature;BME280_humidity;BME280_pressure;Samples;Min_cycle;Max_cycle;Signal;HPM_P1;HPM_P2
2023/02/11 00:00:11;;;;;;;40.27;21.23;;;;;;;;;;5033299;28;20485;-44
2023/02/11 00:02:37;;;;;;;43.40;20.43;;;;;;;;;;5032913;28;20885;-44
2023/02/11 00:05:03;;;;;;;39.57;21.60;;;;;;;;;;5033434;28;20495;-45
2023/02/11 00:07:29;;;;;;;38.70;21.17;;;;;;;;;;5033717;28;20544;-44
2023/02/11 00:09:55;;;;;;;40.60;20.07;;;;;;;;;;5034088;28;20406;-44
2023/02/11 00:12:21;;;;;;;48.20;24.30;;;;;;;;;;5033620;28;20465;-45
2023/02/11 00:14:47;;;;;;;46.33;22.63;;;;;;;;;;5031497;28;20816;-44
2023/02/11 00:17:13;;;;;;;41.47;21.17;;;;;;;;;;5033516;28;20431;-44
2023/02/11 00:19:39;;;;;;;45.83;21.47;;;;;;;;;;5033674;28;20957;-44
2023/02/11 00:22:06;;;;;;;40.87;20.70;;;;;;;;;;5033445;28;20426;-44
2023/02/11 00:24:32;;;;;;;47.03;23.35;;;;;;;;;;5032978;28;20777;-44
2023/02/11 00:26:58;;;;;;;46.50;22.30;;;;;;;;;;5033443;28;20200;-44
2023/02/11 00:29:24;;;;;;;41.50;20.55;;;;;;;;;;5033444;28;20407;-44
2023/02/11 00:31:50;;;;;;;46.33;21.77;;;;;;;;;;5033061;28;20260;-45
2023/02/11 00:34:16;;;;;;;48.17;21.70;;;;;;;;;;5032566;28;20463;-44
2023/02/11 00:36:43;;;;;;;38.47;20.90;;;;;;;;;;5033434;28;20416;-45
2023/02/11 00:39:09;;;;;;;46.97;23.43;;;;;;;;;;5033205;28;20403;-44
2023/02/11 00:41:36;;;;;;;41.40;21.00;;;;;;;;;;5033004;28;20414;-44
2023/02/11 00:44:02;;;;;;;42.87;22.13;;;;;;;;;;5031279;28;20603;-44
2023/02/11 00:46:28;;;;;;;39.70;21.70;;;;;;;;;;5033229;28;20573;-45
2023/02/11 00:48:56;;;;;;;38.20;21.50;;;;;;;;;;5033063;28;20253;-44
2023/02/11 00:51:22;;;;;;;36.50;21.05;;;;;;;;;;5033096;28;20179;-45
2023/02/11 00:53:48;;;;;;;42.70;21.92;;;;;;;;;;5032040;28;20662;-44
2023/02/11 00:56:14;;;;;;;41.90;20.60;;;;;;;;;;5032943;28;20175;-44
2023/02/11 00:58:40;;;;;;;36.27;21.40;;;;;;;;;;5032726;28;20476;-44
2023/02/11 01:01:06;;;;;;;37.43;20.50;;;;;;;;;;5032726;28;20843;-45
2023/02/11 01:03:32;;;;;;;38.20;20.70;;;;;;;;;;5032681;28;20420;-44
2023/02/11 01:05:58;;;;;;;29.37;17.30;;;;;;;;;;5032413;28;20515;-45
2023/02/11 01:08:24;;;;;;;37.10;19.33;;;;;;;;;;5032620;28;20431;-44
2023/02/11 01:10:57;;;;;;;33.50;18.90;;;;;;;;;;5031649;28;20910;-44
2023/02/11 01:13:24;;;;;;;35.07;18.17;;;;;;;;;;5031911;28;20468;-44
2023/02/11 01:15:50;;;;;;;38.53;19.80;;;;;;;;;;5032000;28;20441;-45
2023/02/11 01:18:16;;;;;;;35.90;19.07;;;;;;;;;;5032506;28;20438;-44
2023/02/11 01:20:42;;;;;;;44.43;19.27;;;;;;;;;;5032586;28;20406;-44
2023/02/11 01:23:08;;;;;;;34.13;19.63;;;;;;;;;;5032345;28;20416;-44
2023/02/11 01:25:34;;;;;;;36.97;20.17;;;;;;;;;;5030607;28;20960;-44
2023/02/11 01:28:00;;;;;;;36.80;19.90;;;;;;;;;;5032096;28;20435;-44
2023/02/11 01:30:26;;;;;;;33.83;18.60;;;;;;;;;;5032301;28;20411;-44
2023/02/11 01:32:52;;;;;;;34.70;17.67;;;;;;;;;;5032411;28;20423;-45
2023/02/11 01:35:18;;;;;;;32.27;18.97;;;;;;;;;;5031656;28;20420;-44
2023/02/11 01:37:44;;;;;;;34.37;19.33;;;;;;;;;;5032166;28;20941;-44
2023/02/11 01:40:14;;;;;;;34.20;18.20;;;;;;;;;;5031092;28;20430;-44
2023/02/11 01:42:40;;;;;;;32.83;17.93;;;;;;;;;;5031567;28;20998;-44
2023/02/11 01:45:24;;;;;;;36.17;18.67;;;;;;;;;;5031365;28;20468;-44
2023/02/11 01:47:50;;;;;;;31.37;17.70;;;;;;;;;;5025063;28;20858;-44
2023/02/11 01:50:17;;;;;;;31.73;18.60;;;;;;;;;;5031982;28;20418;-44
2023/02/11 01:52:46;;;;;;;31.13;18.83;;;;;;;;;;5030672;28;20515;-44
2023/02/11 01:57:59;;;;;;;30.90;17.93;;;;;;;;;;5024249;28;20853;-45
2023/02/11 02:00:31;;;;;;;31.27;16.70;;;;;;;;;;5029685;28;20411;-45
2023/02/11 02:03:00;;;;;;;29.60;17.47;;;;;;;;;;5030307;28;20415;-44
2023/02/11 02:05:38;;;;;;;29.40;17.43;;;;;;;;;;5030274;28;20517;-44
2023/02/11 02:08:19;;;;;;;34.60;17.50;;;;;;;;;;5030960;28;20844;-45
2023/02/11 02:10:47;;;;;;;28.10;18.13;;;;;;;;;;5026515;28;20427;-44
2023/02/11 02:13:14;;;;;;;33.07;18.63;;;;;;;;;;5031308;28;20467;-44
2023/02/11 02:15:43;;;;;;;29.67;16.77;;;;;;;;;;5031188;28;20568;-45
2023/02/11 02:18:12;;;;;;;38.17;19.30;;;;;;;;;;5031798;28;20450;-44
2023/02/11 02:20:52;;;;;;;32.57;16.70;;;;;;;;;;5031990;28;20438;-44
2023/02/11 02:23:33;;;;;;;37.40;17.40;;;;;;;;;;5030551;28;20405;-44
2023/02/11 02:26:31;;;;;;;35.63;18.37;;;;;;;;;;5028360;28;20557;-45
2023/02/11 02:28:57;;;;;;;31.93;18.67;;;;;;;;;;5024189;28;20438;-45
2023/02/11 02:31:43;;;;;;;32.57;18.80;;;;;;;;;;5029030;28;20415;-45
2023/02/11 02:34:11;;;;;;;34.77;17.90;;;;;;;;;;5026845;28;20412;-44
2023/02/11 02:36:43;;;;;;;33.03;19.00;;;;;;;;;;5031058;28;20978;-45
2023/02/11 02:39:15;;;;;;;40.13;20.83;;;;;;;;;;5031424;28;20909;-45
2023/02/11 02:41:41;;;;;;;33.33;19.70;;;;;;;;;;5030366;28;20438;-44
2023/02/11 02:44:08;;;;;;;37.20;21.53;;;;;;;;;;5028339;28;20476;-44
2023/02/11 02:46:34;;;;;;;36.77;20.53;;;;;;;;;;5026996;28;20468;-44
2023/02/11 02:49:00;;;;;;;31.60;18.90;;;;;;;;;;5031275;28;20481;-44
2023/02/11 02:51:38;;;;;;;41.90;20.40;;;;;;;;;;5031153;28;20442;-44
2023/02/11 02:54:10;;;;;;;39.00;19.80;;;;;;;;;;5030569;28;20430;-44
2023/02/11 02:56:45;;;;;;;34.60;18.67;;;;;;;;;;5030642;28;20835;-44
2023/02/11 02:59:25;;;;;;;41.80;18.63;;;;;;;;;;5031259;28;20410;-44
2023/02/11 03:02:04;;;;;;;37.83;19.43;;;;;;;;;;5025071;28;20445;-44
2023/02/11 03:04:35;;;;;;;33.33;18.77;;;;;;;;;;5030588;28;20468;-44
2023/02/11 03:07:16;;;;;;;40.53;21.10;;;;;;;;;;5031041;28;20465;-44
2023/02/11 03:09:51;;;;;;;41.53;19.40;;;;;;;;;;5024182;28;20813;-44
2023/02/11 03:12:19;;;;;;;36.83;18.37;;;;;;;;;;5030674;28;20402;-44
2023/02/11 03:14:46;;;;;;;38.53;20.30;;;;;;;;;;5032310;28;20437;-44
2023/02/11 03:17:13;;;;;;;33.47;19.20;;;;;;;;;;5034861;28;20438;-44
2023/02/11 03:19:41;;;;;;;30.70;18.97;;;;;;;;;;5032552;28;20410;-44
2023/02/11 03:22:11;;;;;;;36.05;19.83;;;;;;;;;;5029964;28;20415;-44
2023/02/11 03:24:38;;;;;;;33.90;18.03;;;;;;;;;;5033147;28;20271;-44
2023/02/11 03:27:16;;;;;;;36.77;19.30;;;;;;;;;;5034727;28;20521;-44
2023/02/11 03:29:45;;;;;;;36.30;18.77;;;;;;;;;;5034564;28;20409;-45
2023/02/11 03:32:23;;;;;;;30.53;17.00;;;;;;;;;;5034430;28;20838;-45
2023/02/11 03:34:53;;;;;;;31.73;18.90;;;;;;;;;;5026668;28;20403;-44
2023/02/11 03:37:21;;;;;;;40.33;19.30;;;;;;;;;;5033675;28;20435;-44
2023/02/11 03:39:50;;;;;;;33.97;18.90;;;;;;;;;;5034351;28;20494;-45
2023/02/11 03:42:17;;;;;;;41.93;17.83;;;;;;;;;;5034143;28;20911;-44
2023/02/11 03:44:47;;;;;;;37.40;18.77;;;;;;;;;;5033648;28;20891;-44
2023/02/11 03:47:13;;;;;;;32.40;18.70;;;;;;;;;;5033871;28;20458;-44
2023/02/11 03:49:40;;;;;;;34.33;17.17;;;;;;;;;;5033942;28;20406;-45
2023/02/11 03:52:10;;;;;;;30.13;16.80;;;;;;;;;;5033556;28;20509;-45
2023/02/11 03:54:36;;;;;;;34.20;17.57;;;;;;;;;;5033184;28;20430;-45
2023/02/11 03:57:02;;;;;;;44.20;17.45;;;;;;;;;;5030309;28;20973;-44
2023/02/11 03:59:28;;;;;;;39.87;19.40;;;;;;;;;;5034059;28;20200;-45
2023/02/11 04:01:54;;;;;;;34.87;17.70;;;;;;;;;;5033833;28;20415;-44
2023/02/11 04:04:20;;;;;;;40.73;18.73;;;;;;;;;;5032506;28;20439;-44
2023/02/11 04:06:46;;;;;;;38.60;21.47;;;;;;;;;;5033864;28;21055;-44
2023/02/11 04:09:12;;;;;;;31.47;17.87;;;;;;;;;;5033894;28;20417;-45
2023/02/11 04:11:38;;;;;;;34.80;18.23;;;;;;;;;;5033465;28;20434;-44
2023/02/11 04:14:04;;;;;;;40.73;18.00;;;;;;;;;;5033086;28;20414;-44
2023/02/11 04:16:30;;;;;;;38.43;18.53;;;;;;;;;;5033593;28;20985;-45
2023/02/11 04:18:57;;;;;;;36.27;19.37;;;;;;;;;;5033111;28;20445;-44
2023/02/11 04:21:23;;;;;;;39.70;18.87;;;;;;;;;;5033617;28;20417;-44
2023/02/11 04:23:48;;;;;;;42.17;21.70;;;;;;;;;;5032755;28;20402;-45
2023/02/11 04:26:14;;;;;;;44.70;21.37;;;;;;;;;;5033412;28;20516;-44
2023/02/11 04:28:40;;;;;;;46.33;21.97;;;;;;;;;;5033639;28;20510;-46
2023/02/11 04:31:06;;;;;;;44.80;20.80;;;;;;;;;;5033732;28;20461;-44
2023/02/11 04:33:32;;;;;;;47.57;21.10;;;;;;;;;;5033217;28;20391;-44
2023/02/11 04:35:58;;;;;;;53.77;23.10;;;;;;;;;;5032919;28;20460;-44
2023/02/11 04:38:24;;;;;;;43.63;19.93;;;;;;;;;;5033465;28;20509;-44
2023/02/11 04:40:50;;;;;;;41.27;20.07;;;;;;;;;;5033495;28;20406;-44
2023/02/11 04:43:17;;;;;;;48.30;23.30;;;;;;;;;;5033269;28;20883;-45
2023/02/11 04:45:42;;;;;;;39.67;19.33;;;;;;;;;;5032615;28;20647;-44
2023/02/11 04:48:08;;;;;;;38.40;20.93;;;;;;;;;;5033278;28;20431;-44
2023/02/11 04:50:34;;;;;;;41.17;22.00;;;;;;;;;;5033480;28;20405;-44
2023/02/11 04:53:00;;;;;;;56.73;22.33;;;;;;;;;;5032913;28;20442;-45
2023/02/11 04:55:26;;;;;;;40.90;20.80;;;;;;;;;;5032434;28;20417;-44
2023/02/11 04:57:54;;;;;;;39.00;21.30;;;;;;;;;;5033207;28;20429;-44
2023/02/11 05:00:20;;;;;;;58.88;23.73;;;;;;;;;;5033085;28;20403;-45
2023/02/11 05:02:46;;;;;;;44.80;22.77;;;;;;;;;;5032840;28;20210;-45
2023/02/11 05:05:12;;;;;;;42.50;22.10;;;;;;;;;;5032422;28;20442;-45
2023/02/11 05:07:37;;;;;;;49.67;21.00;;;;;;;;;;5032858;28;20419;-44
2023/02/11 05:10:04;;;;;;;48.47;23.77;;;;;;;;;;5033298;28;20454;-45
2023/02/11 05:12:30;;;;;;;42.13;21.55;;;;;;;;;;5032791;28;20430;-44
2023/02/11 05:14:56;;;;;;;39.43;22.10;;;;;;;;;;5032028;28;20219;-45
2023/02/11 05:17:22;;;;;;;47.65;23.58;;;;;;;;;;5032686;28;20410;-44
2023/02/11 05:19:48;;;;;;;36.23;21.43;;;;;;;;;;5032831;28;20171;-44
2023/02/11 05:22:14;;;;;;;36.43;20.07;;;;;;;;;;5032574;28;20401;-45
2023/02/11 05:24:39;;;;;;;44.10;21.73;;;;;;;;;;5031961;28;20955;-44
2023/02/11 05:27:05;;;;;;;53.37;21.77;;;;;;;;;;5032575;28;21012;-45
2023/02/11 05:29:31;;;;;;;47.47;21.77;;;;;;;;;;5032496;28;20456;-44
2023/02/11 05:31:58;;;;;;;50.63;21.43;;;;;;;;;;5032285;28;20415;-44
2023/02/11 05:34:24;;;;;;;47.08;20.45;;;;;;;;;;5031786;28;20403;-45
2023/02/11 05:36:50;;;;;;;43.57;23.13;;;;;;;;;;5031751;28;20318;-45
2023/02/11 05:39:16;;;;;;;42.73;22.23;;;;;;;;;;5032872;28;20606;-44
2023/02/11 05:41:42;;;;;;;47.80;23.10;;;;;;;;;;5032110;28;20552;-44
2023/02/11 05:44:08;;;;;;;42.93;21.93;;;;;;;;;;5031530;28;20414;-44
2023/02/11 05:46:34;;;;;;;48.47;23.42;;;;;;;;;;5032238;28;20454;-44
2023/02/11 05:49:00;;;;;;;46.40;24.30;;;;;;;;;;5032302;28;20206;-44
2023/02/11 05:51:26;;;;;;;51.67;22.47;;;;;;;;;;5033352;28;20453;-42
2023/02/11 05:53:53;;;;;;;46.13;23.83;;;;;;;;;;5030486;28;20398;-42
2023/02/11 05:56:19;;;;;;;75.03;23.60;;;;;;;;;;5031550;28;20414;-43
2023/02/11 05:58:45;;;;;;;49.53;23.40;;;;;;;;;;5031154;28;20423;-43
2023/02/11 06:01:10;;;;;;;49.13;23.73;;;;;;;;;;5031481;28;20419;-43
2023/02/11 06:03:37;;;;;;;41.70;24.03;;;;;;;;;;5031007;28;20437;-45
2023/02/11 06:06:03;;;;;;;45.23;21.30;;;;;;;;;;5030942;28;20872;-47
2023/02/11 06:08:29;;;;;;;47.30;22.17;;;;;;;;;;5031345;28;20872;-42
2023/02/11 06:10:55;;;;;;;47.70;23.87;;;;;;;;;;5031497;28;20494;-42
2023/02/11 06:13:21;;;;;;;41.10;22.17;;;;;;;;;;5030934;28;20487;-42
2023/02/11 06:15:55;;;;;;;44.13;22.63;;;;;;;;;;5030607;28;20438;-42
2023/02/11 06:18:21;;;;;;;52.83;24.35;;;;;;;;;;5031488;28;20423;-42
2023/02/11 06:20:47;;;;;;;58.90;22.43;;;;;;;;;;5031221;28;20604;-41
2023/02/11 06:23:13;;;;;;;41.03;22.20;;;;;;;;;;5031068;28;20545;-42
2023/02/11 06:25:38;;;;;;;38.17;21.60;;;;;;;;;;5030677;28;20457;-42
2023/02/11 06:28:04;;;;;;;39.17;20.73;;;;;;;;;;5031539;28;20484;-43
2023/02/11 06:30:30;;;;;;;48.95;22.88;;;;;;;;;;5031931;28;20399;-45
2023/02/11 06:32:56;;;;;;;54.73;24.63;;;;;;;;;;5031302;28;20172;-46
2023/02/11 06:35:22;;;;;;;42.10;20.60;;;;;;;;;;5030983;28;20489;-42
2023/02/11 06:37:48;;;;;;;38.70;20.63;;;;;;;;;;5031563;28;20437;-42
2023/02/11 06:40:14;;;;;;;51.63;23.00;;;;;;;;;;5031636;28;20401;-42
2023/02/11 06:42:41;;;;;;;61.20;23.30;;;;;;;;;;5031193;28;20406;-42
2023/02/11 06:45:09;;;;;;;45.50;22.43;;;;;;;;;;5031013;28;20422;-42
2023/02/11 06:47:35;;;;;;;46.17;22.10;;;;;;;;;;5031650;28;20859;-42
2023/02/11 06:50:02;;;;;;;44.90;23.73;;;;;;;;;;5035627;28;20395;-42
2023/02/11 06:52:27;;;;;;;41.40;20.80;;;;;;;;;;5035405;28;20540;-42
2023/02/11 06:54:53;;;;;;;43.27;20.33;;;;;;;;;;5034262;28;20407;-42
2023/02/11 06:57:19;;;;;;;45.10;21.37;;;;;;;;;;5054715;28;20438;-42
2023/02/11 06:59:45;;;;;;;41.58;24.40;;;;;;;;;;5055380;28;20398;-42
2023/02/11 07:02:11;;;;;;;43.50;21.67;;;;;;;;;;5055125;28;20182;-42
2023/02/11 07:04:37;;;;;;;47.87;22.37;;;;;;;;;;5054598;28;20401;-42
2023/02/11 07:07:03;;;;;;;47.23;21.97;;;;;;;;;;5055057;28;20449;-44
2023/02/11 07:09:29;;;;;;;52.60;24.93;;;;;;;;;;5055082;28;20447;-46
2023/02/11 07:11:55;;;;;;;44.17;24.10;;;;;;;;;;5054939;28;20405;-42
2023/02/11 07:14:21;;;;;;;49.57;23.10;;;;;;;;;;5054276;28;20402;-42
2023/02/11 07:16:47;;;;;;;54.27;22.90;;;;;;;;;;5055244;28;20441;-42
2023/02/11 07:19:13;;;;;;;57.07;21.97;;;;;;;;;;5055080;28;20401;-43
2023/02/11 07:21:39;;;;;;;48.77;22.70;;;;;;;;;;5054697;28;20453;-42
2023/02/11 07:24:09;;;;;;;53.53;22.13;;;;;;;;;;5054166;28;20422;-42
2023/02/11 07:26:35;;;;;;;64.03;25.87;;;;;;;;;;5054823;28;20464;-44
2023/02/11 07:29:01;;;;;;;57.15;24.48;;;;;;;;;;5050226;28;20488;-42
2023/02/11 07:31:29;;;;;;;56.77;24.33;;;;;;;;;;5034945;28;20179;-47
2023/02/11 07:33:56;;;;;;;50.17;24.70;;;;;;;;;;5033915;28;20488;-46
2023/02/11 07:36:22;;;;;;;60.00;24.77;;;;;;;;;;5032317;28;20441;-42
2023/02/11 07:38:49;;;;;;;50.80;23.77;;;;;;;;;;5034009;28;20945;-43
2023/02/11 07:41:17;;;;;;;68.10;26.35;;;;;;;;;;5034532;28;20844;-42
2023/02/11 07:43:43;;;;;;;60.22;24.60;;;;;;;;;;5031083;28;20229;-50
2023/02/11 07:46:11;;;;;;;55.37;23.43;;;;;;;;;;5028052;28;20273;-42
2023/02/11 07:48:37;;;;;;;57.33;25.67;;;;;;;;;;5034640;28;20437;-42
2023/02/11 07:51:06;;;;;;;63.53;26.63;;;;;;;;;;5034176;28;20473;-42
2023/02/11 07:53:32;;;;;;;57.30;25.87;;;;;;;;;;5033663;28;20183;-46
2023/02/11 07:55:58;;;;;;;65.53;26.90;;;;;;;;;;5030395;28;20419;-42
2023/02/11 07:58:24;;;;;;;77.27;27.50;;;;;;;;;;5031762;28;20415;-42
2023/02/11 08:00:50;;;;;;;71.07;26.20;;;;;;;;;;5026329;28;20410;-43
2023/02/11 08:03:16;;;;;;;75.97;28.37;;;;;;;;;;5033263;28;20410;-48
2023/02/11 08:05:42;;;;;;;64.17;28.03;;;;;;;;;;5033036;28;20981;-45
2023/02/11 08:08:08;;;;;;;89.50;24.67;;;;;;;;;;5033833;28;20564;-43
2023/02/11 08:10:35;;;;;;;65.47;28.23;;;;;;;;;;5033813;28;20493;-43
2023/02/11 08:13:01;;;;;;;70.70;26.60;;;;;;;;;;5033457;28;20437;-42
2023/02/11 08:15:27;;;;;;;71.90;26.17;;;;;;;;;;5032611;28;20559;-42
2023/02/11 08:17:53;;;;;;;60.60;26.00;;;;;;;;;;5034151;28;20934;-43
2023/02/11 08:20:19;;;;;;;64.87;28.00;;;;;;;;;;5033504;28;20495;-43
2023/02/11 08:22:45;;;;;;;74.30;26.23;;;;;;;;;;5033453;28;20400;-42
2023/02/11 08:25:11;;;;;;;59.87;27.03;;;;;;;;;;5033125;28;20423;-42
2023/02/11 08:27:37;;;;;;;64.27;26.67;;;;;;;;;;5033488;28;20450;-43
2023/02/11 08:30:03;;;;;;;67.20;26.40;;;;;;;;;;5033396;28;20423;-43
2023/02/11 08:32:29;;;;;;;69.50;26.50;;;;;;;;;;5031086;28;20856;-43
2023/02/11 08:34:55;;;;;;;63.70;25.87;;;;;;;;;;5032413;28;20446;-45
2023/02/11 08:37:21;;;;;;;68.67;28.27;;;;;;;;;;5033086;28;20927;-46
2023/02/11 08:39:47;;;;;;;77.87;26.77;;;;;;;;;;5033455;28;20775;-42
2023/02/11 08:42:16;;;;;;;64.37;26.20;;;;;;;;;;5033099;28;20610;-42
2023/02/11 08:44:43;;;;;;;75.10;29.87;;;;;;;;;;5024786;28;20411;-43
2023/02/11 08:47:09;;;;;;;64.73;25.77;;;;;;;;;;5033123;28;20559;-43
2023/02/11 08:49:35;;;;;;;78.27;29.90;;;;;;;;;;5033354;28;20493;-43
2023/02/11 08:52:03;;;;;;;61.03;25.87;;;;;;;;;;5032823;28;20454;-43
2023/02/11 08:54:29;;;;;;;76.10;28.83;;;;;;;;;;5032211;28;20407;-46
2023/02/11 08:56:55;;;;;;;61.67;26.00;;;;;;;;;;5033104;28;20521;-42
2023/02/11 08:59:21;;;;;;;75.93;25.93;;;;;;;;;;5032604;28;20417;-43
2023/02/11 09:01:48;;;;;;;70.53;27.23;;;;;;;;;;5032664;28;20411;-44
2023/02/11 09:04:14;;;;;;;65.37;27.47;;;;;;;;;;5032629;28;20423;-45
2023/02/11 09:06:40;;;;;;;69.83;28.87;;;;;;;;;;5032645;28;20470;-47
2023/02/11 09:09:06;;;;;;;77.10;27.87;;;;;;;;;;5032745;28;20418;-46
2023/02/11 09:11:34;;;;;;;79.27;27.77;;;;;;;;;;5032188;28;20415;-45
2023/02/11 09:14:01;;;;;;;57.63;24.80;;;;;;;;;;5032433;28;20896;-47
2023/02/11 09:16:28;;;;;;;73.93;27.97;;;;;;;;;;5032263;28;20858;-46
2023/02/11 09:18:56;;;;;;;64.03;26.23;;;;;;;;;;5032368;28;20522;-46
2023/02/11 09:21:22;;;;;;;63.30;26.97;;;;;;;;;;5032300;28;20416;-47
2023/02/11 09:23:48;;;;;;;62.73;24.17;;;;;;;;;;5031743;28;20419;-44
2023/02/11 09:26:16;;;;;;;83.20;32.43;;;;;;;;;;5032151;28;20465;-44
2023/02/11 09:28:43;;;;;;;76.93;26.17;;;;;;;;;;5032381;28;20505;-44
2023/02/11 09:31:10;;;;;;;70.07;26.50;;;;;;;;;;5032366;28;20396;-44
2023/02/11 09:33:36;;;;;;;68.73;25.90;;;;;;;;;;5031858;28;20405;-44
2023/02/11 09:36:03;;;;;;;65.80;26.07;;;;;;;;;;5032391;28;20747;-44
2023/02/11 09:38:30;;;;;;;70.03;29.37;;;;;;;;;;5032362;28;20434;-44
2023/02/11 09:40:56;;;;;;;74.60;29.43;;;;;;;;;;5032370;28;20970;-44
2023/02/11 09:43:24;;;;;;;78.07;29.33;;;;;;;;;;5032078;28;20404;-44
2023/02/11 09:45:50;;;;;;;67.60;28.17;;;;;;;;;;5031387;28;20522;-45
2023/02/11 09:48:21;;;;;;;69.07;26.67;;;;;;;;;;5032181;28;20490;-44
2023/02/11 09:50:50;;;;;;;82.70;27.90;;;;;;;;;;5032171;28;20464;-44
2023/02/11 09:53:30;;;;;;;81.23;29.07;;;;;;;;;;5031882;28;20500;-44
2023/02/11 09:55:59;;;;;;;63.07;27.40;;;;;;;;;;5031190;28;20406;-45
2023/02/11 09:58:27;;;;;;;80.07;29.27;;;;;;;;;;5030968;28;20947;-44
2023/02/11 10:00:58;;;;;;;74.07;27.53;;;;;;;;;;5032051;28;20403;-44
2023/02/11 10:03:32;;;;;;;64.77;27.47;;;;;;;;;;5031506;28;20409;-44
2023/02/11 10:05:58;;;;;;;83.40;29.07;;;;;;;;;;5031072;28;20455;-44
2023/02/11 10:08:41;;;;;;;69.27;28.40;;;;;;;;;;5031579;28;20953;-44
2023/02/11 10:11:21;;;;;;;72.50;26.53;;;;;;;;;;5029131;28;20486;-44
2023/02/11 10:14:01;;;;;;;69.17;27.20;;;;;;;;;;5030614;28;20400;-45
2023/02/11 10:16:39;;;;;;;70.63;27.07;;;;;;;;;;5031187;28;20852;-45
2023/02/11 10:19:12;;;;;;;76.57;27.93;;;;;;;;;;5030870;28;20774;-44
2023/02/11 10:21:49;;;;;;;63.77;27.30;;;;;;;;;;5030262;28;20466;-44
2023/02/11 10:24:16;;;;;;;71.73;27.63;;;;;;;;;;5030030;28;20425;-44
2023/02/11 10:26:43;;;;;;;67.87;26.40;;;;;;;;;;5030451;28;20544;-44
2023/02/11 10:29:18;;;;;;;60.17;26.00;;;;;;;;;;5031450;28;20499;-44
2023/02/11 10:31:46;;;;;;;68.93;26.40;;;;;;;;;;5031056;28;20406;-44
2023/02/11 10:34:13;;;;;;;62.43;25.57;;;;;;;;;;5030366;28;20850;-44
2023/02/11 10:36:41;;;;;;;63.67;27.00;;;;;;;;;;5031604;28;20412;-44
2023/02/11 10:39:15;;;;;;;62.63;25.27;;;;;;;;;;5031500;28;20406;-44
2023/02/11 10:41:48;;;;;;;69.57;25.07;;;;;;;;;;5031333;28;20412;-44
2023/02/11 10:44:21;;;;;;;68.40;27.63;;;;;;;;;;5030679;28;20428;-44
2023/02/11 10:46:48;;;;;;;64.30;26.30;;;;;;;;;;5031191;28;21021;-44
2023/02/11 10:49:32;;;;;;;60.63;24.97;;;;;;;;;;5031462;28;20935;-44
2023/02/11 10:52:29;;;;;;;57.43;23.73;;;;;;;;;;5031183;28;20436;-44
2023/02/11 10:54:56;;;;;;;60.50;25.30;;;;;;;;;;5022133;28;20460;-44
2023/02/11 10:57:25;;;;;;;65.80;27.07;;;;;;;;;;5031451;28;20511;-44
2023/02/11 10:59:56;;;;;;;63.90;26.37;;;;;;;;;;5031297;28;20406;-44
2023/02/11 11:02:34;;;;;;;61.90;25.37;;;;;;;;;;5031122;28;20451;-45
2023/02/11 11:05:05;;;;;;;68.43;26.00;;;;;;;;;;5030307;28;20437;-44
2023/02/11 11:07:33;;;;;;;69.43;28.67;;;;;;;;;;5031056;28;20852;-44
2023/02/11 11:09:59;;;;;;;59.60;25.60;;;;;;;;;;5031041;28;20405;-44
2023/02/11 11:12:27;;;;;;;70.53;27.20;;;;;;;;;;5030935;28;20764;-44
2023/02/11 11:14:55;;;;;;;58.73;27.33;;;;;;;;;;5030478;28;20893;-44
2023/02/11 11:17:21;;;;;;;64.13;27.30;;;;;;;;;;5031085;28;20522;-44
2023/02/11 11:19:47;;;;;;;65.20;28.77;;;;;;;;;;5030912;28;20476;-44
2023/02/11 11:22:20;;;;;;;65.53;27.67;;;;;;;;;;5030927;28;20417;-44
2023/02/11 11:24:52;;;;;;;66.73;26.30;;;;;;;;;;5030734;28;20488;-44
2023/02/11 11:27:20;;;;;;;63.73;27.30;;;;;;;;;;5031206;28;20487;-44
2023/02/11 11:29:48;;;;;;;68.20;27.47;;;;;;;;;;5030962;28;20413;-44
2023/02/11 11:32:35;;;;;;;59.37;26.83;;;;;;;;;;5029761;28;20404;-44
2023/02/11 11:35:08;;;;;;;66.67;26.77;;;;;;;;;;5027123;28;20407;-44
2023/02/11 11:37:36;;;;;;;78.47;29.27;;;;;;;;;;5034656;28;20527;-44
2023/02/11 11:40:07;;;;;;;71.67;29.73;;;;;;;;;;5034606;28;20781;-44
2023/02/11 11:42:35;;;;;;;78.43;27.47;;;;;;;;;;5034303;28;20744;-44
2023/02/11 11:45:02;;;;;;;72.40;29.70;;;;;;;;;;5034010;28;20420;-44
2023/02/11 11:47:47;;;;;;;59.17;29.00;;;;;;;;;;5034536;28;20949;-44
2023/02/11 11:50:25;;;;;;;76.87;28.57;;;;;;;;;;5034544;28;20487;-44
2023/02/11 11:53:10;;;;;;;60.23;27.50;;;;;;;;;;5034443;28;20400;-45
2023/02/11 11:55:41;;;;;;;66.53;27.40;;;;;;;;;;5033602;28;20398;-44
2023/02/11 11:58:10;;;;;;;74.43;28.93;;;;;;;;;;5032759;28;20932;-44
2023/02/11 12:00:42;;;;;;;88.53;29.07;;;;;;;;;;5034093;28;20442;-45
2023/02/11 12:03:28;;;;;;;62.80;28.67;;;;;;;;;;5034641;28;20453;-44
2023/02/11 12:05:54;;;;;;;64.40;29.87;;;;;;;;;;5033565;28;20903;-45
2023/02/11 12:08:28;;;;;;;70.60;28.33;;;;;;;;;;5033931;28;20504;-44
2023/02/11 12:11:02;;;;;;;65.93;28.17;;;;;;;;;;5033815;28;20406;-44
2023/02/11 12:13:37;;;;;;;67.37;27.40;;;;;;;;;;5033784;28;20402;-44
2023/02/11 12:16:19;;;;;;;67.23;28.87;;;;;;;;;;5033373;28;20807;-44
2023/02/11 12:18:51;;;;;;;67.00;29.17;;;;;;;;;;5033995;28;20422;-44
2023/02/11 12:21:17;;;;;;;68.97;31.27;;;;;;;;;;5033948;28;20409;-44
2023/02/11 12:23:51;;;;;;;64.80;28.40;;;;;;;;;;5033056;28;20427;-44
2023/02/11 12:26:20;;;;;;;77.97;30.67;;;;;;;;;;5033657;28;20513;-44
2023/02/11 12:28:54;;;;;;;61.73;28.30;;;;;;;;;;5033023;28;20435;-45
2023/02/11 12:31:27;;;;;;;74.83;30.43;;;;;;;;;;5033539;28;20396;-44
2023/02/11 12:33:58;;;;;;;74.80;30.57;;;;;;;;;;5032143;28;20467;-44
2023/02/11 12:36:44;;;;;;;72.53;31.07;;;;;;;;;;5033634;28;20413;-44
2023/02/11 12:39:25;;;;;;;60.50;31.10;;;;;;;;;;5033565;28;20413;-44
2023/02/11 12:44:54;;;;;;;66.50;30.93;;;;;;;;;;5032822;28;20406;-44
2023/02/11 12:47:20;;;;;;;67.40;29.83;;;;;;;;;;5032956;28;20465;-44
2023/02/11 12:49:55;;;;;;;76.77;33.70;;;;;;;;;;5033602;28;20409;-44
2023/02/11 12:52:41;;;;;;;71.67;32.43;;;;;;;;;;5033069;28;20485;-45
2023/02/11 12:55:10;;;;;;;79.10;31.50;;;;;;;;;;5032611;28;20411;-44
2023/02/11 12:57:38;;;;;;;70.60;29.07;;;;;;;;;;5032932;28;20511;-45
2023/02/11 13:00:13;;;;;;;73.30;30.77;;;;;;;;;;5033258;28;20755;-44
2023/02/11 13:02:49;;;;;;;68.53;27.87;;;;;;;;;;5032927;28;20969;-44
2023/02/11 13:05:21;;;;;;;69.33;31.37;;;;;;;;;;5032463;28;20467;-44
2023/02/11 13:07:49;;;;;;;73.57;30.80;;;;;;;;;;5032929;28;20448;-44
2023/02/11 13:10:27;;;;;;;83.40;30.50;;;;;;;;;;5032942;28;20409;-44
2023/02/11 13:15:40;;;;;;;64.63;27.73;;;;;;;;;;5032217;28;20862;-44
2023/02/11 13:18:16;;;;;;;75.60;31.40;;;;;;;;;;5032781;28;20424;-45
2023/02/11 13:20:46;;;;;;;79.93;30.53;;;;;;;;;;5032791;28;20405;-44
2023/02/11 13:23:23;;;;;;;67.27;29.07;;;;;;;;;;5032498;28;20406;-44
2023/02/11 13:25:54;;;;;;;83.77;33.03;;;;;;;;;;5032050;28;20479;-44
2023/02/11 13:28:25;;;;;;;72.63;32.20;;;;;;;;;;5032496;28;20431;-45
2023/02/11 13:31:00;;;;;;;69.43;30.50;;;;;;;;;;5032422;28;20905;-44
2023/02/11 13:33:38;;;;;;;65.10;31.00;;;;;;;;;;5032220;28;20781;-44
2023/02/11 13:36:04;;;;;;;81.87;30.93;;;;;;;;;;5032180;28;20410;-44
2023/02/11 13:38:31;;;;;;;64.03;30.83;;;;;;;;;;5032384;28;20759;-44
2023/02/11 13:41:06;;;;;;;73.67;29.80;;;;;;;;;;5032541;28;20401;-44
2023/02/11 13:43:33;;;;;;;80.83;32.43;;;;;;;;;;5031954;28;20402;-44
2023/02/11 13:46:02;;;;;;;70.30;30.00;;;;;;;;;;5031661;28;20457;-44
2023/02/11 13:48:29;;;;;;;75.00;31.30;;;;;;;;;;5032213;28;20422;-44
2023/02/11 13:50:57;;;;;;;70.20;31.00;;;;;;;;;;5032301;28;20459;-44
2023/02/11 13:53:23;;;;;;;70.63;29.40;;;;;;;;;;5032000;28;20437;-44
2023/02/11 13:55:50;;;;;;;77.87;31.33;;;;;;;;;;5031352;28;20776;-45
2023/02/11 13:58:18;;;;;;;73.23;37.27;;;;;;;;;;5031362;28;20440;-45
2023/02/11 14:00:46;;;;;;;81.87;31.73;;;;;;;;;;5030498;28;20504;-44
2023/02/11 14:09:02;;;;;;;66.37;29.37;;;;;;;;;;5029868;28;20830;-44
2023/02/11 14:11:35;;;;;;;80.50;30.30;;;;;;;;;;5031817;28;20471;-44
2023/02/11 14:14:07;;;;;;;65.37;28.30;;;;;;;;;;5031084;28;20398;-44
2023/02/11 14:16:34;;;;;;;89.50;32.07;;;;;;;;;;5031379;28;20425;-44
2023/02/11 14:19:01;;;;;;;74.33;29.93;;;;;;;;;;5031189;28;20458;-44
2023/02/11 14:21:31;;;;;;;77.50;31.37;;;;;;;;;;5030897;28;20401;-44
2023/02/11 14:24:10;;;;;;;80.90;32.93;;;;;;;;;;5030607;28;20978;-44
2023/02/11 14:26:51;;;;;;;75.83;32.37;;;;;;;;;;5030470;28;20452;-44
2023/02/11 14:29:38;;;;;;;68.83;30.47;;;;;;;;;;5031740;28;20455;-45
2023/02/11 14:32:12;;;;;;;66.10;30.60;;;;;;;;;;5031145;28;20878;-44
2023/02/11 14:34:58;;;;;;;70.10;28.87;;;;;;;;;;5029681;28;20410;-45
2023/02/11 14:37:53;;;;;;;67.87;29.90;;;;;;;;;;5031593;28;20433;-44
2023/02/11 14:40:28;;;;;;;67.67;29.53;;;;;;;;;;4995005;28;20430;-44